Stacyville, Maine
Current Conditions -  °F | °C
As of 12:53 AM on Thursday 23 Oct 2014 (Local Time) from KMLT Reporting Station
Light Rain Light Rain  
Wind Chill: 39°   Ceiling: 700
Heat Index: 44°   Visibility: 6mi
Dew Point: 41°   Wind: 10mph
Humidity: 89%   Direction: 40°NE
Pressure: 30.18"   Gusts: 18mph
Location:  45.86°N, 68.51°W
Report Text: KMLT 230453Z AUTO 04009G16KT 6SM -RA BR BKN007 OVC015 07/05 A3018 RMK AO2 SLP226 P0002 T00670050 401280061
Loading
Personal Weather Stations






























Interactive Weather Map
Tropical Storm Tracking
New forecast layout! Learn more

10-Day Weather Forecast

Advertisements
Track Severe Weather on mobile